Haysville, KS

3:48 AM CST on March 03, 2015 (GMT -0600)
MesoWest PECK KS US UPR | Change Station
CLOSE
Current Station
Personal Weather Station
Location: Haysville, KS
Elevation: 1307 ft
Nearby Weather Stations

Elev 1307 ft 37.53 °N, 97.36 °W | Updated 2 hours ago

Fog
Fog
31 °F
Feels Like 31 °F
N
Wind Variable Wind from North
Gusts 0.0 mph

Today
High -- | Low -- °F
--% Chance of Precip.
Yesterday
High -- | Low -- °F
Precip. -- in
6:58 AM 6:25 PM
Waxing Gibbous, 95% visible
Pressure 29.76 in
Visibility 3.0 miles
Clouds Overcast 200 ft
Windchill 31 °F
Dew Point Not available.
Humidity Not available.
Rainfall -999.00 in
Snow Depth Not available.
UV 0 out of 12
Pollen .50 out of 12
Air Quality Not available.
Flu Activity Not available.
SPECI KIAB 030938Z AUTO 17020G27KT 3SM R19/4000FT BR OVC002 01/01 A2976 RMK AO2 PRESFR

More Conditions Fewer Conditions

Pressure 29.76 in
Visibility 3.0 miles
Clouds Overcast 200 ft
Windchill 31 °F
Dew Point Not available.
Humidity Not available.
Rainfall -999.00 in
Snow Depth Not available.
UV 0 out of 12
Pollen .50 out of 12
Air Quality Not available.
Flu Activity Not available.
SPECI KIAB 030938Z AUTO 17020G27KT 3SM R19/4000FT BR OVC002 01/01 A2976 RMK AO2 PRESFR

More Conditions Fewer Conditions

10-Day Weather Forecast

Almanac

Astronomy

Mar. 03, 2015 Rise Set
Actual Time
Civil Twilight
Nautical Twilight
Astronomical Twilight
Moon
Length of Visible Light
Length of Day
Tomorrow will be .
, % of the Moon is Illuminated

Today's Extremes

State Highs State Lows

Community

WunderPhotos

Upload Photos

1,802,075 photos uploaded!

WunderBlogs® & News

Nearby

Air Quality

  Air Quality AQ Index Pollutant
Not available.

Snow Depth

Station Depth Elevation

Earthquake Activity

City Distance Mag. Time & Date
Minimum magnitude displayed is 2.5.

Coastal Water Temperatures

Place Temperature

Nearby Weather Stations